createdAt,value
2023-03-15T00:00:51.050Z,4.85
2023-03-15T00:03:19.182Z,4.85
2023-03-15T00:05:49.386Z,4.85
2023-03-15T00:08:17.437Z,4.82
2023-03-15T00:10:47.739Z,4.76
2023-03-15T00:13:18.355Z,4.71
2023-03-15T00:15:47.896Z,4.77
2023-03-15T00:18:17.059Z,4.71
2023-03-15T00:20:45.469Z,4.78
2023-03-15T00:23:13.473Z,4.72
2023-03-15T00:25:41.777Z,4.67
2023-03-15T00:28:09.742Z,4.68
2023-03-15T00:30:39.280Z,4.62
2023-03-15T00:33:07.363Z,4.63
2023-03-15T00:35:39.597Z,4.62
2023-03-15T00:38:07.871Z,4.59
2023-03-15T00:40:37.812Z,4.55
2023-03-15T00:43:06.161Z,4.54
2023-03-15T00:45:35.183Z,4.54
2023-03-15T00:48:04.776Z,4.52
2023-03-15T00:50:32.734Z,4.48
2023-03-15T00:53:00.818Z,4.41
2023-03-15T00:55:30.420Z,4.36
2023-03-15T00:57:58.580Z,4.44
2023-03-15T01:00:27.789Z,4.40
2023-03-15T01:02:56.298Z,4.42
2023-03-15T01:05:26.365Z,4.39
2023-03-15T01:07:54.584Z,4.36
2023-03-15T01:10:22.574Z,4.34
2023-03-15T01:12:50.626Z,4.31
2023-03-15T01:15:18.612Z,4.31
2023-03-15T01:17:46.898Z,4.29
2023-03-15T01:20:15.963Z,4.22
2023-03-15T01:22:45.279Z,4.23
2023-03-15T01:25:15.611Z,4.23
2023-03-15T01:27:43.605Z,4.22
2023-03-15T01:30:12.652Z,4.21
2023-03-15T01:32:40.780Z,4.17
2023-03-15T01:35:09.703Z,4.15
2023-03-15T01:37:37.722Z,4.10
2023-03-15T01:40:09.750Z,4.09
2023-03-15T01:42:52.625Z,4.08
2023-03-15T01:46:19.799Z,4.06
2023-03-15T01:48:51.194Z,3.98
2023-03-15T01:51:29.598Z,3.96
2023-03-15T01:54:02.458Z,3.95
2023-03-15T01:56:36.489Z,3.91
2023-03-15T01:59:31.785Z,3.92
2023-03-15T02:02:01.123Z,3.85
2023-03-15T02:04:35.544Z,3.87
2023-03-15T02:07:08.934Z,3.83
2023-03-15T02:09:43.316Z,3.78
2023-03-15T02:12:12.932Z,3.77
2023-03-15T02:14:42.446Z,3.76
2023-03-15T02:17:13.954Z,3.72
2023-03-15T02:19:54.238Z,3.70
2023-03-15T02:22:34.502Z,3.64
2023-03-15T02:25:11.010Z,3.65
2023-03-15T02:27:42.078Z,3.60
2023-03-15T02:30:12.498Z,3.62
2023-03-15T02:32:40.770Z,3.57
2023-03-15T02:35:09.516Z,3.53
2023-03-15T02:37:37.530Z,3.55
2023-03-15T02:40:17.843Z,3.58
2023-03-15T02:42:49.698Z,3.50
2023-03-15T02:45:19.011Z,3.48
2023-03-15T02:47:48.146Z,3.44
2023-03-15T02:50:16.343Z,3.42
2023-03-15T02:52:44.408Z,3.40
2023-03-15T02:55:12.862Z,3.35
2023-03-15T02:58:07.783Z,3.32
2023-03-15T03:00:35.942Z,3.24
2023-03-15T03:03:04.113Z,3.20
2023-03-15T03:05:33.475Z,3.22
2023-03-15T03:08:02.846Z,3.19
2023-03-15T03:10:30.948Z,3.17
2023-03-15T03:13:01.576Z,3.13
2023-03-15T03:15:37.244Z,3.10
2023-03-15T03:18:05.631Z,3.11
2023-03-15T03:20:33.829Z,3.07
2023-03-15T03:23:05.919Z,3.06
2023-03-15T03:25:36.837Z,3.02
2023-03-15T03:28:04.944Z,2.99
2023-03-15T03:30:36.055Z,2.96
2023-03-15T03:33:05.939Z,2.95
2023-03-15T03:35:34.023Z,2.92
2023-03-15T03:38:02.162Z,2.90
2023-03-15T03:40:35.316Z,2.86
2023-03-15T03:43:06.091Z,2.82
2023-03-15T03:45:34.207Z,2.79
2023-03-15T03:48:02.948Z,2.78
2023-03-15T03:50:34.176Z,2.78
2023-03-15T03:53:02.156Z,2.77
2023-03-15T03:55:34.270Z,2.72
2023-03-15T03:58:02.415Z,2.72
2023-03-15T04:00:41.838Z,2.66
2023-03-15T04:03:10.960Z,2.66
2023-03-15T04:05:43.716Z,2.60
2023-03-15T04:08:16.177Z,2.61
2023-03-15T04:10:44.604Z,2.62
2023-03-15T04:13:15.928Z,2.59
2023-03-15T04:15:44.395Z,2.55
2023-03-15T04:18:12.477Z,2.54
2023-03-15T04:20:46.735Z,2.51
2023-03-15T04:23:16.075Z,2.50
2023-03-15T04:26:07.413Z,2.46
2023-03-15T04:28:55.806Z,2.44
2023-03-15T04:31:37.790Z,2.37
2023-03-15T04:34:28.359Z,2.38
2023-03-15T04:37:26.825Z,2.35
2023-03-15T04:40:01.920Z,2.33
2023-03-15T04:42:35.698Z,2.30
2023-03-15T04:45:22.179Z,2.28
2023-03-15T04:48:28.741Z,2.27
2023-03-15T04:51:10.547Z,2.25
2023-03-15T04:53:52.885Z,2.23
2023-03-15T04:56:53.048Z,2.20
2023-03-15T04:59:39.601Z,2.18
2023-03-15T05:02:41.435Z,2.13
2023-03-15T05:05:24.415Z,2.11
2023-03-15T05:08:28.586Z,2.11
2023-03-15T05:11:16.746Z,2.10
2023-03-15T05:13:51.831Z,2.07
2023-03-15T05:16:34.881Z,2.04
2023-03-15T05:19:21.881Z,1.99
2023-03-15T05:22:08.642Z,2.01
2023-03-15T05:25:15.414Z,2.05
2023-03-15T05:28:04.931Z,1.95
2023-03-15T05:30:52.239Z,1.92
2023-03-15T05:33:54.451Z,1.89
2023-03-15T05:36:36.041Z,1.87
2023-03-15T05:39:36.407Z,1.89
2023-03-15T05:42:07.874Z,1.88
2023-03-15T05:44:54.094Z,1.86
2023-03-15T05:47:38.819Z,1.85
2023-03-15T05:50:28.214Z,1.87
2023-03-15T05:53:15.236Z,1.86
2023-03-15T05:56:06.831Z,1.84
2023-03-15T05:59:13.194Z,1.80
2023-03-15T06:02:09.532Z,1.76
2023-03-15T06:06:03.184Z,1.78
2023-03-15T06:08:37.791Z,1.74
2023-03-15T06:11:06.812Z,1.71
2023-03-15T06:13:35.257Z,1.72
2023-03-15T06:16:08.356Z,1.70
2023-03-15T06:18:41.449Z,1.71
2023-03-15T06:21:10.131Z,1.67
2023-03-15T06:23:38.889Z,1.63
2023-03-15T06:26:06.940Z,1.65
2023-03-15T06:28:36.028Z,1.64
2023-03-15T06:31:09.352Z,1.64
2023-03-15T06:33:46.160Z,1.64
2023-03-15T06:36:15.373Z,1.62
2023-03-15T06:38:43.537Z,1.61
2023-03-15T06:41:12.491Z,1.62
2023-03-15T06:43:41.222Z,1.65
2023-03-15T06:46:09.526Z,1.66
2023-03-15T06:48:37.597Z,1.66
2023-03-15T06:51:07.186Z,1.66
2023-03-15T06:53:35.292Z,1.67
2023-03-15T06:56:03.416Z,1.69
2023-03-15T06:58:31.524Z,1.70
2023-03-15T07:01:00.479Z,1.75
2023-03-15T07:03:28.547Z,1.80
2023-03-15T07:05:56.766Z,1.85
2023-03-15T07:08:26.761Z,1.90
2023-03-15T07:10:54.885Z,1.97
2023-03-15T07:13:22.933Z,2.03
2023-03-15T07:15:53.396Z,2.11
2023-03-15T07:18:22.040Z,2.16
2023-03-15T07:20:57.188Z,2.23
2023-03-15T07:23:27.156Z,2.28
2023-03-15T07:25:56.021Z,2.38
2023-03-15T07:28:25.863Z,2.42
2023-03-15T07:30:57.612Z,2.47
2023-03-15T07:33:26.787Z,2.58
2023-03-15T07:35:55.508Z,2.62
2023-03-15T07:38:24.620Z,2.69
2023-03-15T07:40:54.010Z,2.79
2023-03-15T07:43:22.455Z,2.89
2023-03-15T07:45:52.241Z,3.02
2023-03-15T07:48:20.254Z,3.07
2023-03-15T07:50:48.399Z,3.21
2023-03-15T07:53:16.702Z,3.24
2023-03-15T07:55:44.967Z,3.33
2023-03-15T07:58:14.282Z,3.39
2023-03-15T08:00:42.373Z,3.47
2023-03-15T08:03:10.592Z,3.55
2023-03-15T08:05:38.568Z,3.66
2023-03-15T08:08:07.243Z,3.79
2023-03-15T08:10:35.215Z,3.84
2023-03-15T08:13:03.251Z,3.87
2023-03-15T08:15:32.765Z,3.93
2023-03-15T08:18:01.155Z,3.96
2023-03-15T08:20:29.920Z,4.07
2023-03-15T08:22:58.336Z,4.17
2023-03-15T08:25:26.517Z,4.31
2023-03-15T08:27:54.652Z,4.39
2023-03-15T08:30:23.304Z,4.48
2023-03-15T08:32:52.917Z,4.63
2023-03-15T08:35:22.982Z,4.76
2023-03-15T08:37:52.571Z,4.82
2023-03-15T08:40:25.274Z,4.86
2023-03-15T08:42:54.649Z,5.05
2023-03-15T08:45:24.154Z,5.01
2023-03-15T08:47:55.858Z,5.13
2023-03-15T08:50:24.340Z,5.19
2023-03-15T08:52:53.422Z,5.32
2023-03-15T08:55:22.116Z,5.41
2023-03-15T08:57:50.141Z,5.52
2023-03-15T09:00:20.835Z,5.54
2023-03-15T09:02:49.895Z,5.54
2023-03-15T09:05:19.463Z,5.65
2023-03-15T09:07:48.556Z,5.85
2023-03-15T09:10:18.515Z,5.88
2023-03-15T09:12:48.698Z,5.86
2023-03-15T09:15:17.142Z,5.94
2023-03-15T09:17:45.268Z,5.94
2023-03-15T09:20:16.656Z,5.84
2023-03-15T09:22:53.486Z,6.02
2023-03-15T09:25:22.217Z,6.26
2023-03-15T09:27:50.618Z,6.40
2023-03-15T09:30:19.413Z,6.56
2023-03-15T09:32:47.711Z,6.51
2023-03-15T09:35:18.521Z,6.66
2023-03-15T09:37:48.365Z,6.85
2023-03-15T09:40:21.273Z,6.86
2023-03-15T09:43:00.063Z,6.94
2023-03-15T09:45:36.413Z,7.25
2023-03-15T09:48:10.109Z,7.30
2023-03-15T09:50:44.770Z,7.43
2023-03-15T09:53:17.871Z,7.63
2023-03-15T09:55:49.807Z,7.46
2023-03-15T09:58:22.538Z,7.70
2023-03-15T10:00:54.246Z,7.86
2023-03-15T10:03:30.366Z,7.76
2023-03-15T10:06:03.817Z,7.90
2023-03-15T10:08:34.384Z,8.07
2023-03-15T10:11:12.633Z,7.92
2023-03-15T10:13:54.373Z,8.05
2023-03-15T10:16:37.025Z,8.06
2023-03-15T10:19:14.825Z,8.17
2023-03-15T10:21:53.465Z,8.16
2023-03-15T10:24:26.758Z,8.45
2023-03-15T10:26:55.254Z,8.54
2023-03-15T10:29:27.052Z,8.52
2023-03-15T10:31:55.999Z,8.50
2023-03-15T10:34:26.923Z,8.61
2023-03-15T10:36:59.926Z,8.71
2023-03-15T10:39:29.604Z,8.68
2023-03-15T10:41:57.889Z,8.81
2023-03-15T10:44:28.227Z,8.61
2023-03-15T10:47:16.056Z,8.69
2023-03-15T10:49:50.387Z,8.63
2023-03-15T10:52:34.965Z,8.66
2023-03-15T10:55:06.978Z,8.80
2023-03-15T10:57:39.113Z,8.85
2023-03-15T11:00:24.044Z,8.62
2023-03-15T11:02:53.665Z,8.87
2023-03-15T11:05:21.928Z,8.98
2023-03-15T11:07:58.002Z,8.92
2023-03-15T11:10:34.357Z,8.83
2023-03-15T11:13:14.315Z,8.83
2023-03-15T11:15:49.884Z,8.93
2023-03-15T11:18:20.543Z,9.00
2023-03-15T11:20:48.580Z,8.96
2023-03-15T11:23:21.646Z,8.94
2023-03-15T11:25:51.084Z,8.70
2023-03-15T11:28:21.411Z,8.78
2023-03-15T11:30:50.211Z,8.85
2023-03-15T11:33:34.056Z,8.95
2023-03-15T11:36:06.446Z,8.99
2023-03-15T11:38:38.612Z,8.83
2023-03-15T11:41:17.723Z,8.98
2023-03-15T11:43:56.129Z,9.06
2023-03-15T11:46:30.078Z,9.08
2023-03-15T11:49:06.250Z,9.17
2023-03-15T11:51:37.454Z,9.05
2023-03-15T11:54:13.380Z,9.05
2023-03-15T11:56:55.085Z,9.12
2023-03-15T11:59:27.753Z,9.08
2023-03-15T12:02:01.055Z,9.12
2023-03-15T12:04:43.153Z,9.18
2023-03-15T12:07:56.350Z,9.35
2023-03-15T12:10:46.519Z,9.32
2023-03-15T12:13:24.276Z,9.44
2023-03-15T12:15:53.267Z,9.40
2023-03-15T12:18:31.257Z,9.45
2023-03-15T12:21:12.387Z,9.50
2023-03-15T12:23:46.320Z,9.42
2023-03-15T12:26:25.564Z,9.52
2023-03-15T12:29:06.895Z,9.41
2023-03-15T12:31:52.546Z,9.37
2023-03-15T12:34:27.705Z,9.62
2023-03-15T12:36:59.070Z,9.66
2023-03-15T12:39:39.744Z,9.66
2023-03-15T12:42:08.364Z,9.61
2023-03-15T12:44:43.428Z,9.43
2023-03-15T12:47:12.452Z,9.46
2023-03-15T12:49:42.884Z,9.25
2023-03-15T12:52:44.533Z,9.49
2023-03-15T12:55:28.692Z,9.36
2023-03-15T12:58:08.964Z,9.65
2023-03-15T13:00:43.710Z,9.61
2023-03-15T13:03:16.757Z,9.72
2023-03-15T13:06:03.857Z,9.66
2023-03-15T13:08:40.493Z,9.61
2023-03-15T13:11:19.518Z,9.48
2023-03-15T13:14:03.048Z,9.37
2023-03-15T13:16:38.057Z,9.44
2023-03-15T13:19:18.148Z,9.36
2023-03-15T13:22:03.884Z,9.43
2023-03-15T13:24:42.743Z,9.42
2023-03-15T13:27:20.607Z,9.41
2023-03-15T13:29:48.828Z,9.49
2023-03-15T13:32:20.101Z,9.29
2023-03-15T13:34:49.180Z,9.37
2023-03-15T13:37:21.748Z,9.20
2023-03-15T13:40:02.200Z,9.25
2023-03-15T13:42:30.499Z,9.12
2023-03-15T13:45:20.321Z,9.15
2023-03-15T13:47:50.003Z,8.79
2023-03-15T13:50:20.398Z,8.83
2023-03-15T13:52:49.411Z,8.72
2023-03-15T13:55:22.650Z,8.81
2023-03-15T13:57:55.560Z,8.95
2023-03-15T14:00:25.085Z,8.85
2023-03-15T14:02:56.475Z,8.81
2023-03-15T14:05:28.206Z,8.91
2023-03-15T14:08:02.718Z,8.94
2023-03-15T14:10:32.986Z,8.98
2023-03-15T14:13:22.396Z,8.92
2023-03-15T14:15:51.058Z,8.78
2023-03-15T14:18:24.614Z,8.96
2023-03-15T14:20:59.945Z,8.94
2023-03-15T14:23:29.840Z,8.82
2023-03-15T14:26:04.721Z,8.91
2023-03-15T14:28:34.021Z,8.84
2023-03-15T14:31:03.408Z,8.99
2023-03-15T14:33:39.842Z,8.76
2023-03-15T14:36:10.219Z,8.87
2023-03-15T14:38:40.840Z,8.92
2023-03-15T14:41:20.246Z,8.80
2023-03-15T14:43:48.200Z,8.88
2023-03-15T14:46:16.440Z,8.97
2023-03-15T14:48:46.457Z,9.00
2023-03-15T14:51:17.356Z,8.88
2023-03-15T14:53:47.596Z,8.94
2023-03-15T14:56:16.787Z,8.79
2023-03-15T14:58:46.218Z,8.81
2023-03-15T15:01:17.425Z,8.81
2023-03-15T15:03:49.266Z,8.75
2023-03-15T15:06:17.452Z,8.63
2023-03-15T15:08:47.000Z,8.75
2023-03-15T15:11:15.897Z,8.73
2023-03-15T15:13:43.937Z,8.65
2023-03-15T15:16:12.076Z,8.66
2023-03-15T15:18:40.187Z,8.79
2023-03-15T15:21:14.678Z,8.76
2023-03-15T15:23:57.553Z,8.73
2023-03-15T15:26:28.819Z,8.67
2023-03-15T15:28:57.519Z,8.66
2023-03-15T15:31:27.794Z,8.79
2023-03-15T15:33:57.569Z,8.69
2023-03-15T15:36:32.248Z,8.74
2023-03-15T15:39:05.082Z,8.56
2023-03-15T15:41:34.313Z,8.52
2023-03-15T15:44:02.598Z,8.52
2023-03-15T15:46:30.606Z,8.52
2023-03-15T15:48:58.873Z,8.50
2023-03-15T15:51:31.724Z,8.41
2023-03-15T15:54:01.290Z,8.38
2023-03-15T15:56:34.209Z,8.42
2023-03-15T15:59:04.450Z,8.51
2023-03-15T16:01:33.330Z,8.36
2023-03-15T16:04:02.249Z,8.44
2023-03-15T16:06:32.513Z,8.25
2023-03-15T16:09:00.857Z,8.42
2023-03-15T16:11:29.482Z,8.37
2023-03-15T16:13:57.680Z,8.37
2023-03-15T16:16:25.794Z,8.29
2023-03-15T16:18:54.264Z,8.29
2023-03-15T16:21:33.030Z,8.40
2023-03-15T16:24:07.153Z,8.38
2023-03-15T16:26:38.117Z,8.26
2023-03-15T16:29:16.566Z,8.29
2023-03-15T16:31:44.920Z,8.19
2023-03-15T16:34:14.494Z,8.12
2023-03-15T16:36:45.353Z,7.98
2023-03-15T16:39:16.512Z,8.03
2023-03-15T16:41:44.543Z,8.03
2023-03-15T16:44:13.337Z,8.12
2023-03-15T16:46:41.522Z,8.12
2023-03-15T16:49:10.124Z,8.04
2023-03-15T16:51:39.904Z,8.01
2023-03-15T16:54:19.681Z,7.84
2023-03-15T16:56:51.338Z,7.95
2023-03-15T16:59:19.682Z,7.98
2023-03-15T17:01:49.370Z,7.95
2023-03-15T17:04:17.529Z,7.82
2023-03-15T17:06:47.152Z,7.87
2023-03-15T17:09:19.368Z,7.87
2023-03-15T17:11:50.874Z,7.90
2023-03-15T17:14:26.064Z,7.90
2023-03-15T17:16:54.394Z,7.81
2023-03-15T17:19:22.501Z,7.90
2023-03-15T17:21:51.853Z,7.86
2023-03-15T17:24:20.298Z,7.83
2023-03-15T17:26:48.340Z,7.83
2023-03-15T17:29:16.826Z,7.82
2023-03-15T17:31:46.322Z,7.81
2023-03-15T17:34:14.415Z,7.80
2023-03-15T17:36:42.542Z,7.88
2023-03-15T17:39:16.814Z,7.75
2023-03-15T17:41:47.620Z,7.71
2023-03-15T17:44:15.812Z,7.74
2023-03-15T17:46:43.845Z,7.68
2023-03-15T17:49:14.982Z,7.71
2023-03-15T17:51:42.788Z,7.68
2023-03-15T17:54:14.664Z,7.63
2023-03-15T17:56:43.337Z,7.64
2023-03-15T17:59:12.277Z,7.63
2023-03-15T18:01:43.452Z,7.61
2023-03-15T18:04:14.099Z,7.61
2023-03-15T18:06:43.020Z,7.58
2023-03-15T18:09:12.633Z,7.63
2023-03-15T18:11:42.522Z,7.56
2023-03-15T18:14:14.301Z,7.53
2023-03-15T18:16:43.124Z,7.52
2023-03-15T18:19:12.801Z,7.52
2023-03-15T18:21:41.081Z,7.50
2023-03-15T18:24:12.230Z,7.53
2023-03-15T18:26:40.076Z,7.53
2023-03-15T18:29:08.247Z,7.47
2023-03-15T18:31:36.582Z,7.47
2023-03-15T18:34:04.712Z,7.38
2023-03-15T18:36:34.083Z,7.44
2023-03-15T18:39:02.263Z,7.41
2023-03-15T18:41:30.381Z,7.40
2023-03-15T18:43:59.274Z,7.45
2023-03-15T18:46:27.591Z,7.38
2023-03-15T18:48:55.762Z,7.30
2023-03-15T18:51:26.224Z,7.36
2023-03-15T18:53:56.486Z,7.35
2023-03-15T18:56:27.374Z,7.31
2023-03-15T18:58:55.789Z,7.31
2023-03-15T19:01:24.432Z,7.30
2023-03-15T19:03:53.238Z,7.32
2023-03-15T19:06:22.319Z,7.33
2023-03-15T19:08:54.138Z,7.35
2023-03-15T19:11:24.119Z,7.29
2023-03-15T19:13:52.432Z,7.22
2023-03-15T19:16:21.212Z,7.27
2023-03-15T19:18:49.693Z,7.25
2023-03-15T19:21:18.950Z,7.26
2023-03-15T19:23:47.255Z,7.25
2023-03-15T19:26:15.393Z,7.27
2023-03-15T19:28:44.905Z,7.31
2023-03-15T19:31:13.060Z,7.32
2023-03-15T19:33:41.066Z,7.30
2023-03-15T19:36:10.325Z,7.31
2023-03-15T19:38:38.295Z,7.30
2023-03-15T19:41:07.365Z,7.26
2023-03-15T19:43:38.001Z,7.31
2023-03-15T19:46:08.192Z,7.29
2023-03-15T19:48:36.743Z,7.24
2023-03-15T19:51:04.862Z,7.33
2023-03-15T19:53:32.781Z,7.28
2023-03-15T19:56:06.044Z,7.33
2023-03-15T19:58:34.567Z,7.26
2023-03-15T20:01:02.679Z,7.30
2023-03-15T20:03:34.734Z,7.25
2023-03-15T20:06:07.974Z,7.29
2023-03-15T20:08:35.954Z,7.23
2023-03-15T20:11:05.372Z,7.28
2023-03-15T20:13:33.922Z,7.30
2023-03-15T20:16:02.119Z,7.31
2023-03-15T20:18:31.488Z,7.24
2023-03-15T20:21:01.012Z,7.22
2023-03-15T20:23:29.347Z,7.22
2023-03-15T20:26:06.056Z,7.20
2023-03-15T20:28:34.121Z,7.16
2023-03-15T20:31:07.424Z,7.21
2023-03-15T20:33:35.376Z,7.21
2023-03-15T20:36:05.240Z,7.21
2023-03-15T20:38:34.466Z,7.21
2023-03-15T20:41:02.420Z,7.26
2023-03-15T20:43:31.327Z,7.25
2023-03-15T20:46:00.443Z,7.31
2023-03-15T20:48:29.167Z,7.28
2023-03-15T20:50:58.261Z,7.25
2023-03-15T20:53:27.687Z,7.25
2023-03-15T20:55:55.724Z,7.25
2023-03-15T20:58:23.890Z,7.28
2023-03-15T21:00:52.034Z,7.28
2023-03-15T21:03:20.178Z,7.31
2023-03-15T21:05:48.384Z,7.26
2023-03-15T21:08:17.468Z,7.24
2023-03-15T21:10:47.084Z,7.30
2023-03-15T21:13:15.456Z,7.27
2023-03-15T21:15:45.915Z,7.27
2023-03-15T21:18:14.088Z,7.30
2023-03-15T21:20:42.208Z,7.33
2023-03-15T21:23:10.857Z,7.37
2023-03-15T21:25:39.285Z,7.30
2023-03-15T21:28:08.799Z,7.36
2023-03-15T21:30:39.933Z,7.26
2023-03-15T21:33:08.218Z,7.30
2023-03-15T21:35:36.424Z,7.31
2023-03-15T21:38:04.479Z,7.32
2023-03-15T21:40:32.474Z,7.33
2023-03-15T21:43:00.596Z,7.35
2023-03-15T21:45:30.107Z,7.37
2023-03-15T21:47:58.215Z,7.29
2023-03-15T21:50:26.660Z,7.30
2023-03-15T21:52:54.974Z,7.21
2023-03-15T21:55:22.970Z,7.30
2023-03-15T21:57:51.828Z,7.26
2023-03-15T22:00:23.163Z,7.28
2023-03-15T22:02:55.629Z,7.32
2023-03-15T22:05:24.153Z,7.30
2023-03-15T22:07:52.229Z,7.34
2023-03-15T22:10:20.340Z,7.31
2023-03-15T22:12:48.408Z,7.29
2023-03-15T22:15:16.840Z,7.31
2023-03-15T22:17:46.049Z,7.37
2023-03-15T22:20:17.001Z,7.37
2023-03-15T22:22:46.295Z,7.30
2023-03-15T22:25:15.072Z,7.37
2023-03-15T22:27:43.563Z,7.35
2023-03-15T22:30:14.575Z,7.31
2023-03-15T22:32:44.215Z,7.33
2023-03-15T22:35:12.946Z,7.29
2023-03-15T22:37:42.561Z,7.24
2023-03-15T22:40:14.130Z,7.22
2023-03-15T22:42:42.801Z,7.27
2023-03-15T22:45:11.627Z,7.19
2023-03-15T22:47:39.723Z,7.25
2023-03-15T22:50:08.150Z,7.25
2023-03-15T22:52:36.174Z,7.17
2023-03-15T22:55:06.641Z,7.16
2023-03-15T22:57:34.869Z,7.19
2023-03-15T23:00:03.006Z,7.20
2023-03-15T23:02:32.979Z,7.20
2023-03-15T23:05:01.642Z,7.16
2023-03-15T23:07:29.710Z,7.17
2023-03-15T23:09:57.700Z,7.22
2023-03-15T23:12:35.954Z,7.15
2023-03-15T23:15:04.981Z,7.18
2023-03-15T23:17:33.176Z,7.23
2023-03-15T23:20:02.320Z,7.20
2023-03-15T23:22:30.865Z,7.29
2023-03-15T23:24:58.873Z,7.21
2023-03-15T23:27:28.422Z,7.28
2023-03-15T23:29:56.702Z,7.27
2023-03-15T23:32:26.203Z,7.26
2023-03-15T23:34:54.846Z,7.28
2023-03-15T23:37:23.450Z,7.30
2023-03-15T23:39:52.938Z,7.26
2023-03-15T23:42:25.733Z,7.27
2023-03-15T23:44:56.071Z,7.26
2023-03-15T23:47:25.463Z,7.34
2023-03-15T23:49:53.507Z,7.32
2023-03-15T23:52:25.467Z,7.32
2023-03-15T23:54:54.085Z,7.29
2023-03-15T23:57:22.397Z,7.33
2023-03-15T23:59:51.457Z,7.35
